sensor_id;sensor_type;location;lat;lon;timestamp;P1;durP1;ratioP1;P2;durP2;ratioP2
1991;SDS011;997;48.448;8.924;2024-02-21T00:01:45;18.77;;;14.77;;
1991;SDS011;997;48.448;8.924;2024-02-21T00:04:10;13.13;;;7.90;;
1991;SDS011;997;48.448;8.924;2024-02-21T00:06:36;6.67;;;6.03;;
1991;SDS011;997;48.448;8.924;2024-02-21T00:09:02;7.83;;;6.83;;
1991;SDS011;997;48.448;8.924;2024-02-21T00:11:28;7.10;;;6.40;;
1991;SDS011;997;48.448;8.924;2024-02-21T00:13:53;9.23;;;6.97;;
1991;SDS011;997;48.448;8.924;2024-02-21T00:16:19;6.87;;;5.70;;
1991;SDS011;997;48.448;8.924;2024-02-21T00:18:45;7.33;;;6.03;;
1991;SDS011;997;48.448;8.924;2024-02-21T00:21:10;9.83;;;6.53;;
1991;SDS011;997;48.448;8.924;2024-02-21T00:23:42;7.50;;;6.30;;
1991;SDS011;997;48.448;8.924;2024-02-21T00:26:14;7.00;;;4.87;;
1991;SDS011;997;48.448;8.924;2024-02-21T00:28:40;7.40;;;6.20;;
1991;SDS011;997;48.448;8.924;2024-02-21T00:31:05;7.30;;;5.87;;
1991;SDS011;997;48.448;8.924;2024-02-21T00:33:31;7.90;;;6.60;;
1991;SDS011;997;48.448;8.924;2024-02-21T00:35:57;4.53;;;4.20;;
1991;SDS011;997;48.448;8.924;2024-02-21T00:38:22;5.20;;;4.70;;
1991;SDS011;997;48.448;8.924;2024-02-21T00:40:48;6.07;;;4.80;;
1991;SDS011;997;48.448;8.924;2024-02-21T00:43:14;6.43;;;5.73;;
1991;SDS011;997;48.448;8.924;2024-02-21T00:45:39;16.07;;;12.23;;
1991;SDS011;997;48.448;8.924;2024-02-21T00:48:05;11.17;;;7.60;;
1991;SDS011;997;48.448;8.924;2024-02-21T00:50:31;6.70;;;5.70;;
1991;SDS011;997;48.448;8.924;2024-02-21T00:52:57;7.20;;;5.03;;
1991;SDS011;997;48.448;8.924;2024-02-21T00:55:23;6.13;;;4.93;;
1991;SDS011;997;48.448;8.924;2024-02-21T00:57:48;8.10;;;6.03;;
1991;SDS011;997;48.448;8.924;2024-02-21T01:00:14;6.13;;;5.00;;
1991;SDS011;997;48.448;8.924;2024-02-21T01:02:40;9.23;;;5.77;;
1991;SDS011;997;48.448;8.924;2024-02-21T01:05:06;7.47;;;5.40;;
1991;SDS011;997;48.448;8.924;2024-02-21T01:07:32;5.40;;;4.37;;
1991;SDS011;997;48.448;8.924;2024-02-21T01:09:57;7.27;;;5.20;;
1991;SDS011;997;48.448;8.924;2024-02-21T01:12:23;5.70;;;4.60;;
1991;SDS011;997;48.448;8.924;2024-02-21T01:14:49;7.17;;;5.80;;
1991;SDS011;997;48.448;8.924;2024-02-21T01:17:14;7.90;;;6.10;;
1991;SDS011;997;48.448;8.924;2024-02-21T01:19:40;5.80;;;5.20;;
1991;SDS011;997;48.448;8.924;2024-02-21T01:22:06;5.63;;;5.03;;
1991;SDS011;997;48.448;8.924;2024-02-21T01:24:32;8.23;;;5.20;;
1991;SDS011;997;48.448;8.924;2024-02-21T01:26:57;5.43;;;4.93;;
1991;SDS011;997;48.448;8.924;2024-02-21T01:29:23;6.93;;;4.90;;
1991;SDS011;997;48.448;8.924;2024-02-21T01:31:48;8.60;;;4.40;;
1991;SDS011;997;48.448;8.924;2024-02-21T01:34:14;7.67;;;5.33;;
1991;SDS011;997;48.448;8.924;2024-02-21T01:36:40;5.67;;;4.33;;
1991;SDS011;997;48.448;8.924;2024-02-21T01:39:07;16.23;;;5.73;;
1991;SDS011;997;48.448;8.924;2024-02-21T01:41:32;6.37;;;4.07;;
1991;SDS011;997;48.448;8.924;2024-02-21T01:43:58;7.67;;;6.53;;
1991;SDS011;997;48.448;8.924;2024-02-21T01:46:24;5.63;;;5.10;;
1991;SDS011;997;48.448;8.924;2024-02-21T01:48:54;7.37;;;4.90;;
1991;SDS011;997;48.448;8.924;2024-02-21T01:51:21;5.90;;;4.40;;
1991;SDS011;997;48.448;8.924;2024-02-21T01:53:47;7.50;;;6.30;;
1991;SDS011;997;48.448;8.924;2024-02-21T01:56:12;4.90;;;4.43;;
1991;SDS011;997;48.448;8.924;2024-02-21T01:58:39;9.60;;;5.13;;
1991;SDS011;997;48.448;8.924;2024-02-21T02:01:07;7.17;;;5.80;;
1991;SDS011;997;48.448;8.924;2024-02-21T02:03:33;7.13;;;4.80;;
1991;SDS011;997;48.448;8.924;2024-02-21T02:05:59;6.10;;;5.17;;
1991;SDS011;997;48.448;8.924;2024-02-21T02:08:25;8.63;;;7.83;;
1991;SDS011;997;48.448;8.924;2024-02-21T02:10:51;8.10;;;5.17;;
1991;SDS011;997;48.448;8.924;2024-02-21T02:13:17;6.40;;;4.93;;
1991;SDS011;997;48.448;8.924;2024-02-21T02:18:10;6.30;;;4.77;;
1991;SDS011;997;48.448;8.924;2024-02-21T02:20:37;12.50;;;6.30;;
1991;SDS011;997;48.448;8.924;2024-02-21T02:23:16;11.03;;;5.00;;
1991;SDS011;997;48.448;8.924;2024-02-21T02:25:51;9.60;;;5.50;;
1991;SDS011;997;48.448;8.924;2024-02-21T02:28:17;10.20;;;5.30;;
1991;SDS011;997;48.448;8.924;2024-02-21T02:30:44;5.27;;;3.97;;
1991;SDS011;997;48.448;8.924;2024-02-21T02:33:10;6.63;;;4.53;;
1991;SDS011;997;48.448;8.924;2024-02-21T02:35:35;9.47;;;5.53;;
1991;SDS011;997;48.448;8.924;2024-02-21T02:38:02;6.50;;;4.80;;
1991;SDS011;997;48.448;8.924;2024-02-21T02:40:28;7.50;;;4.70;;
1991;SDS011;997;48.448;8.924;2024-02-21T02:42:54;7.83;;;4.83;;
1991;SDS011;997;48.448;8.924;2024-02-21T02:45:20;5.93;;;4.80;;
1991;SDS011;997;48.448;8.924;2024-02-21T02:47:51;7.93;;;5.37;;
1991;SDS011;997;48.448;8.924;2024-02-21T02:50:19;6.10;;;4.63;;
1991;SDS011;997;48.448;8.924;2024-02-21T02:52:44;5.90;;;4.60;;
1991;SDS011;997;48.448;8.924;2024-02-21T02:55:10;9.63;;;4.87;;
1991;SDS011;997;48.448;8.924;2024-02-21T02:57:36;5.00;;;4.60;;
1991;SDS011;997;48.448;8.924;2024-02-21T03:00:01;5.50;;;4.20;;
1991;SDS011;997;48.448;8.924;2024-02-21T03:02:28;7.57;;;5.20;;
1991;SDS011;997;48.448;8.924;2024-02-21T03:04:53;9.43;;;5.40;;
1991;SDS011;997;48.448;8.924;2024-02-21T03:07:19;4.83;;;4.30;;
1991;SDS011;997;48.448;8.924;2024-02-21T03:09:45;5.37;;;3.97;;
1991;SDS011;997;48.448;8.924;2024-02-21T03:12:10;8.10;;;4.90;;
1991;SDS011;997;48.448;8.924;2024-02-21T03:14:36;5.00;;;4.60;;
1991;SDS011;997;48.448;8.924;2024-02-21T03:17:02;5.60;;;4.57;;
1991;SDS011;997;48.448;8.924;2024-02-21T03:19:29;5.13;;;4.13;;
1991;SDS011;997;48.448;8.924;2024-02-21T03:21:55;7.40;;;4.33;;
1991;SDS011;997;48.448;8.924;2024-02-21T03:24:21;8.30;;;5.20;;
1991;SDS011;997;48.448;8.924;2024-02-21T03:26:47;5.80;;;4.53;;
1991;SDS011;997;48.448;8.924;2024-02-21T03:29:14;5.27;;;3.20;;
1991;SDS011;997;48.448;8.924;2024-02-21T03:31:40;4.40;;;4.00;;
1991;SDS011;997;48.448;8.924;2024-02-21T03:34:06;6.40;;;4.33;;
1991;SDS011;997;48.448;8.924;2024-02-21T03:36:31;4.50;;;4.10;;
1991;SDS011;997;48.448;8.924;2024-02-21T03:38:57;4.30;;;3.07;;
1991;SDS011;997;48.448;8.924;2024-02-21T03:41:23;5.40;;;4.17;;
1991;SDS011;997;48.448;8.924;2024-02-21T03:43:48;5.53;;;4.37;;
1991;SDS011;997;48.448;8.924;2024-02-21T03:46:14;13.40;;;5.40;;
1991;SDS011;997;48.448;8.924;2024-02-21T03:48:40;4.13;;;3.73;;
1991;SDS011;997;48.448;8.924;2024-02-21T03:51:06;9.17;;;5.07;;
1991;SDS011;997;48.448;8.924;2024-02-21T03:53:32;4.20;;;3.90;;
1991;SDS011;997;48.448;8.924;2024-02-21T03:56:00;5.97;;;5.27;;
1991;SDS011;997;48.448;8.924;2024-02-21T03:58:28;7.73;;;4.73;;
1991;SDS011;997;48.448;8.924;2024-02-21T04:00:53;7.90;;;4.30;;
1991;SDS011;997;48.448;8.924;2024-02-21T04:03:19;6.30;;;4.10;;
1991;SDS011;997;48.448;8.924;2024-02-21T04:05:45;5.13;;;3.30;;
1991;SDS011;997;48.448;8.924;2024-02-21T04:08:11;6.40;;;4.00;;
1991;SDS011;997;48.448;8.924;2024-02-21T04:10:36;5.60;;;3.47;;
1991;SDS011;997;48.448;8.924;2024-02-21T04:13:02;6.90;;;4.00;;
1991;SDS011;997;48.448;8.924;2024-02-21T04:15:29;7.57;;;4.00;;
1991;SDS011;997;48.448;8.924;2024-02-21T04:17:54;6.03;;;3.67;;
1991;SDS011;997;48.448;8.924;2024-02-21T04:20:20;4.87;;;3.80;;
1991;SDS011;997;48.448;8.924;2024-02-21T04:22:46;4.17;;;3.37;;
1991;SDS011;997;48.448;8.924;2024-02-21T04:25:11;4.90;;;4.07;;
1991;SDS011;997;48.448;8.924;2024-02-21T04:27:38;5.67;;;4.60;;
1991;SDS011;997;48.448;8.924;2024-02-21T04:30:04;8.13;;;4.37;;
1991;SDS011;997;48.448;8.924;2024-02-21T04:32:31;7.80;;;4.53;;
1991;SDS011;997;48.448;8.924;2024-02-21T04:34:57;4.60;;;4.20;;
1991;SDS011;997;48.448;8.924;2024-02-21T04:37:23;4.97;;;4.50;;
1991;SDS011;997;48.448;8.924;2024-02-21T04:39:49;4.87;;;3.63;;
1991;SDS011;997;48.448;8.924;2024-02-21T04:42:15;9.60;;;4.47;;
1991;SDS011;997;48.448;8.924;2024-02-21T04:44:41;3.73;;;3.37;;
1991;SDS011;997;48.448;8.924;2024-02-21T04:47:06;8.23;;;3.97;;
1991;SDS011;997;48.448;8.924;2024-02-21T04:49:32;4.97;;;4.13;;
1991;SDS011;997;48.448;8.924;2024-02-21T04:51:58;7.27;;;3.60;;
1991;SDS011;997;48.448;8.924;2024-02-21T04:54:24;5.20;;;4.33;;
1991;SDS011;997;48.448;8.924;2024-02-21T04:56:50;8.57;;;4.40;;
1991;SDS011;997;48.448;8.924;2024-02-21T04:59:16;3.53;;;3.20;;
1991;SDS011;997;48.448;8.924;2024-02-21T05:01:41;6.80;;;4.27;;
1991;SDS011;997;48.448;8.924;2024-02-21T05:04:07;5.60;;;3.90;;
1991;SDS011;997;48.448;8.924;2024-02-21T05:06:37;5.43;;;3.60;;
1991;SDS011;997;48.448;8.924;2024-02-21T05:09:06;4.17;;;3.77;;
1991;SDS011;997;48.448;8.924;2024-02-21T05:11:35;7.03;;;4.33;;
1991;SDS011;997;48.448;8.924;2024-02-21T05:14:02;4.70;;;4.10;;
1991;SDS011;997;48.448;8.924;2024-02-21T05:16:29;5.80;;;4.70;;
1991;SDS011;997;48.448;8.924;2024-02-21T05:18:54;5.10;;;4.57;;
1991;SDS011;997;48.448;8.924;2024-02-21T05:21:22;7.90;;;4.50;;
1991;SDS011;997;48.448;8.924;2024-02-21T05:23:48;4.70;;;4.10;;
1991;SDS011;997;48.448;8.924;2024-02-21T05:26:21;9.77;;;4.70;;
1991;SDS011;997;48.448;8.924;2024-02-21T05:28:50;5.83;;;4.13;;
1991;SDS011;997;48.448;8.924;2024-02-21T05:31:17;3.93;;;3.63;;
1991;SDS011;997;48.448;8.924;2024-02-21T05:33:43;5.10;;;4.60;;
1991;SDS011;997;48.448;8.924;2024-02-21T05:36:09;3.70;;;3.40;;
1991;SDS011;997;48.448;8.924;2024-02-21T05:38:35;5.10;;;4.10;;
1991;SDS011;997;48.448;8.924;2024-02-21T05:41:01;7.03;;;4.13;;
1991;SDS011;997;48.448;8.924;2024-02-21T05:43:27;3.67;;;2.90;;
1991;SDS011;997;48.448;8.924;2024-02-21T05:45:53;4.73;;;3.87;;
1991;SDS011;997;48.448;8.924;2024-02-21T05:48:19;3.50;;;2.53;;
1991;SDS011;997;48.448;8.924;2024-02-21T05:50:45;5.20;;;3.67;;
1991;SDS011;997;48.448;8.924;2024-02-21T05:53:11;2.63;;;2.43;;
1991;SDS011;997;48.448;8.924;2024-02-21T05:55:38;7.73;;;3.43;;
1991;SDS011;997;48.448;8.924;2024-02-21T05:58:04;7.40;;;3.27;;
1991;SDS011;997;48.448;8.924;2024-02-21T06:00:31;4.27;;;3.40;;
1991;SDS011;997;48.448;8.924;2024-02-21T06:02:57;4.43;;;3.87;;
1991;SDS011;997;48.448;8.924;2024-02-21T06:05:23;5.67;;;4.10;;
1991;SDS011;997;48.448;8.924;2024-02-21T06:07:49;4.20;;;3.80;;
1991;SDS011;997;48.448;8.924;2024-02-21T06:10:14;5.70;;;4.20;;
1991;SDS011;997;48.448;8.924;2024-02-21T06:12:40;4.73;;;3.33;;
1991;SDS011;997;48.448;8.924;2024-02-21T06:15:06;3.80;;;3.10;;
1991;SDS011;997;48.448;8.924;2024-02-21T06:17:31;8.07;;;3.30;;
1991;SDS011;997;48.448;8.924;2024-02-21T06:19:57;10.47;;;3.27;;
1991;SDS011;997;48.448;8.924;2024-02-21T06:22:23;4.30;;;3.90;;
1991;SDS011;997;48.448;8.924;2024-02-21T06:24:48;5.80;;;3.77;;
1991;SDS011;997;48.448;8.924;2024-02-21T06:27:15;8.43;;;4.33;;
1991;SDS011;997;48.448;8.924;2024-02-21T06:29:41;11.17;;;4.20;;
1991;SDS011;997;48.448;8.924;2024-02-21T06:32:07;6.90;;;3.67;;
1991;SDS011;997;48.448;8.924;2024-02-21T06:34:33;4.53;;;3.80;;
1991;SDS011;997;48.448;8.924;2024-02-21T06:36:58;7.20;;;4.83;;
1991;SDS011;997;48.448;8.924;2024-02-21T06:39:24;7.70;;;4.37;;
1991;SDS011;997;48.448;8.924;2024-02-21T06:41:50;4.70;;;4.17;;
1991;SDS011;997;48.448;8.924;2024-02-21T06:44:19;6.37;;;4.73;;
1991;SDS011;997;48.448;8.924;2024-02-21T06:46:45;12.17;;;5.07;;
1991;SDS011;997;48.448;8.924;2024-02-21T06:49:10;8.60;;;5.40;;
1991;SDS011;997;48.448;8.924;2024-02-21T06:51:44;7.40;;;5.20;;
1991;SDS011;997;48.448;8.924;2024-02-21T06:54:09;6.53;;;4.60;;
1991;SDS011;997;48.448;8.924;2024-02-21T06:56:36;4.80;;;4.40;;
1991;SDS011;997;48.448;8.924;2024-02-21T06:59:02;4.73;;;4.27;;
1991;SDS011;997;48.448;8.924;2024-02-21T07:01:28;4.63;;;4.13;;
1991;SDS011;997;48.448;8.924;2024-02-21T07:03:54;8.70;;;5.23;;
1991;SDS011;997;48.448;8.924;2024-02-21T07:06:21;4.63;;;4.17;;
1991;SDS011;997;48.448;8.924;2024-02-21T07:08:46;5.67;;;4.80;;
1991;SDS011;997;48.448;8.924;2024-02-21T07:11:12;5.90;;;5.20;;
1991;SDS011;997;48.448;8.924;2024-02-21T07:13:38;4.37;;;4.00;;
1991;SDS011;997;48.448;8.924;2024-02-21T07:16:04;8.93;;;4.30;;
1991;SDS011;997;48.448;8.924;2024-02-21T07:18:30;7.67;;;4.27;;
1991;SDS011;997;48.448;8.924;2024-02-21T07:20:55;8.83;;;4.37;;
1991;SDS011;997;48.448;8.924;2024-02-21T07:23:21;3.47;;;3.17;;
1991;SDS011;997;48.448;8.924;2024-02-21T07:25:47;4.47;;;4.07;;
1991;SDS011;997;48.448;8.924;2024-02-21T07:28:12;6.30;;;3.90;;
1991;SDS011;997;48.448;8.924;2024-02-21T07:30:39;6.40;;;4.47;;
1991;SDS011;997;48.448;8.924;2024-02-21T07:33:05;5.90;;;4.37;;
1991;SDS011;997;48.448;8.924;2024-02-21T07:35:32;7.83;;;4.83;;
1991;SDS011;997;48.448;8.924;2024-02-21T07:37:57;4.93;;;4.10;;
1991;SDS011;997;48.448;8.924;2024-02-21T07:40:23;12.20;;;4.77;;
1991;SDS011;997;48.448;8.924;2024-02-21T07:42:49;7.10;;;4.57;;
1991;SDS011;997;48.448;8.924;2024-02-21T07:45:14;3.90;;;3.60;;
1991;SDS011;997;48.448;8.924;2024-02-21T07:47:40;4.70;;;4.27;;
1991;SDS011;997;48.448;8.924;2024-02-21T07:50:06;5.43;;;4.63;;
1991;SDS011;997;48.448;8.924;2024-02-21T07:52:32;5.47;;;3.83;;
1991;SDS011;997;48.448;8.924;2024-02-21T07:54:58;8.00;;;4.40;;
1991;SDS011;997;48.448;8.924;2024-02-21T07:57:24;7.00;;;4.20;;
1991;SDS011;997;48.448;8.924;2024-02-21T07:59:50;5.33;;;3.80;;
1991;SDS011;997;48.448;8.924;2024-02-21T08:02:15;4.40;;;4.10;;
1991;SDS011;997;48.448;8.924;2024-02-21T08:04:41;6.00;;;3.83;;
1991;SDS011;997;48.448;8.924;2024-02-21T08:07:07;4.87;;;4.03;;
1991;SDS011;997;48.448;8.924;2024-02-21T08:09:34;6.07;;;4.40;;
1991;SDS011;997;48.448;8.924;2024-02-21T08:12:00;5.60;;;3.87;;
1991;SDS011;997;48.448;8.924;2024-02-21T08:14:26;7.00;;;4.27;;
1991;SDS011;997;48.448;8.924;2024-02-21T08:16:51;5.00;;;4.33;;
1991;SDS011;997;48.448;8.924;2024-02-21T08:19:20;5.53;;;5.10;;
1991;SDS011;997;48.448;8.924;2024-02-21T08:21:47;4.87;;;4.33;;
1991;SDS011;997;48.448;8.924;2024-02-21T08:24:16;3.80;;;3.40;;
1991;SDS011;997;48.448;8.924;2024-02-21T08:26:42;4.70;;;4.30;;
1991;SDS011;997;48.448;8.924;2024-02-21T08:29:11;6.97;;;3.90;;
1991;SDS011;997;48.448;8.924;2024-02-21T08:31:37;7.40;;;4.63;;
1991;SDS011;997;48.448;8.924;2024-02-21T08:34:03;6.63;;;4.03;;
1991;SDS011;997;48.448;8.924;2024-02-21T08:36:38;4.73;;;4.13;;
1991;SDS011;997;48.448;8.924;2024-02-21T08:39:03;9.23;;;4.63;;
1991;SDS011;997;48.448;8.924;2024-02-21T08:41:32;10.00;;;4.70;;
1991;SDS011;997;48.448;8.924;2024-02-21T08:43:59;7.60;;;4.97;;
1991;SDS011;997;48.448;8.924;2024-02-21T08:46:24;7.10;;;4.23;;
1991;SDS011;997;48.448;8.924;2024-02-21T08:48:51;4.57;;;3.90;;
1991;SDS011;997;48.448;8.924;2024-02-21T08:51:17;5.33;;;3.63;;
1991;SDS011;997;48.448;8.924;2024-02-21T08:53:43;4.40;;;3.93;;
1991;SDS011;997;48.448;8.924;2024-02-21T08:56:10;6.00;;;3.90;;
1991;SDS011;997;48.448;8.924;2024-02-21T08:58:36;6.73;;;3.90;;
1991;SDS011;997;48.448;8.924;2024-02-21T09:01:04;9.17;;;4.60;;
1991;SDS011;997;48.448;8.924;2024-02-21T09:03:33;5.03;;;4.13;;
1991;SDS011;997;48.448;8.924;2024-02-21T09:05:59;5.37;;;4.93;;
1991;SDS011;997;48.448;8.924;2024-02-21T09:08:25;6.73;;;5.53;;
1991;SDS011;997;48.448;8.924;2024-02-21T09:10:51;7.70;;;5.43;;
1991;SDS011;997;48.448;8.924;2024-02-21T09:13:17;7.00;;;5.00;;
1991;SDS011;997;48.448;8.924;2024-02-21T09:15:43;9.50;;;4.77;;
1991;SDS011;997;48.448;8.924;2024-02-21T09:18:09;4.73;;;4.33;;
1991;SDS011;997;48.448;8.924;2024-02-21T09:20:34;11.80;;;5.67;;
1991;SDS011;997;48.448;8.924;2024-02-21T09:23:00;5.73;;;4.17;;
1991;SDS011;997;48.448;8.924;2024-02-21T09:25:26;6.70;;;4.67;;
1991;SDS011;997;48.448;8.924;2024-02-21T09:27:53;4.90;;;4.40;;
1991;SDS011;997;48.448;8.924;2024-02-21T09:30:19;5.37;;;3.60;;
1991;SDS011;997;48.448;8.924;2024-02-21T09:32:45;9.67;;;5.10;;
1991;SDS011;997;48.448;8.924;2024-02-21T09:35:11;6.33;;;4.90;;
1991;SDS011;997;48.448;8.924;2024-02-21T09:37:38;5.40;;;4.17;;
1991;SDS011;997;48.448;8.924;2024-02-21T09:40:04;4.87;;;3.73;;
1991;SDS011;997;48.448;8.924;2024-02-21T09:42:35;5.63;;;3.53;;
1991;SDS011;997;48.448;8.924;2024-02-21T09:45:03;5.63;;;3.00;;
1991;SDS011;997;48.448;8.924;2024-02-21T09:50:52;3.90;;;2.80;;
1991;SDS011;997;48.448;8.924;2024-02-21T09:53:20;5.83;;;3.40;;
1991;SDS011;997;48.448;8.924;2024-02-21T09:55:49;6.67;;;3.50;;
1991;SDS011;997;48.448;8.924;2024-02-21T09:58:16;3.60;;;2.73;;
1991;SDS011;997;48.448;8.924;2024-02-21T10:00:42;4.10;;;2.90;;
1991;SDS011;997;48.448;8.924;2024-02-21T10:03:07;5.23;;;2.73;;
1991;SDS011;997;48.448;8.924;2024-02-21T10:05:37;3.70;;;2.90;;
1991;SDS011;997;48.448;8.924;2024-02-21T10:08:06;4.20;;;2.17;;
1991;SDS011;997;48.448;8.924;2024-02-21T10:10:44;4.10;;;2.43;;
1991;SDS011;997;48.448;8.924;2024-02-21T10:13:11;4.27;;;1.63;;
1991;SDS011;997;48.448;8.924;2024-02-21T10:15:49;6.73;;;2.30;;
1991;SDS011;997;48.448;8.924;2024-02-21T10:18:25;3.97;;;3.43;;
1991;SDS011;997;48.448;8.924;2024-02-21T10:20:59;4.13;;;2.43;;
1991;SDS011;997;48.448;8.924;2024-02-21T10:23:26;7.57;;;2.83;;
1991;SDS011;997;48.448;8.924;2024-02-21T10:25:51;3.53;;;2.03;;
1991;SDS011;997;48.448;8.924;2024-02-21T10:28:17;3.57;;;2.80;;
1991;SDS011;997;48.448;8.924;2024-02-21T10:30:51;4.23;;;2.60;;
1991;SDS011;997;48.448;8.924;2024-02-21T10:33:17;4.30;;;2.03;;
1991;SDS011;997;48.448;8.924;2024-02-21T10:35:45;4.63;;;2.40;;
1991;SDS011;997;48.448;8.924;2024-02-21T10:38:12;6.30;;;5.93;;
1991;SDS011;997;48.448;8.924;2024-02-21T10:40:38;6.60;;;2.47;;
1991;SDS011;997;48.448;8.924;2024-02-21T10:43:03;2.93;;;2.10;;
1991;SDS011;997;48.448;8.924;2024-02-21T10:45:35;2.73;;;2.50;;
1991;SDS011;997;48.448;8.924;2024-02-21T10:48:08;2.43;;;2.20;;
1991;SDS011;997;48.448;8.924;2024-02-21T10:50:40;4.13;;;2.67;;
1991;SDS011;997;48.448;8.924;2024-02-21T10:56:56;2.73;;;2.53;;
1991;SDS011;997;48.448;8.924;2024-02-21T10:59:23;2.80;;;2.27;;
1991;SDS011;997;48.448;8.924;2024-02-21T11:01:51;2.43;;;2.23;;
1991;SDS011;997;48.448;8.924;2024-02-21T11:04:17;3.40;;;1.83;;
1991;SDS011;997;48.448;8.924;2024-02-21T11:06:43;5.30;;;2.17;;
1991;SDS011;997;48.448;8.924;2024-02-21T11:09:10;2.50;;;2.30;;
1991;SDS011;997;48.448;8.924;2024-02-21T11:11:43;3.43;;;2.10;;
1991;SDS011;997;48.448;8.924;2024-02-21T11:14:10;2.03;;;1.83;;
1991;SDS011;997;48.448;8.924;2024-02-21T11:16:39;2.60;;;2.00;;
1991;SDS011;997;48.448;8.924;2024-02-21T11:21:36;2.70;;;2.03;;
1991;SDS011;997;48.448;8.924;2024-02-21T11:24:05;2.47;;;2.27;;
1991;SDS011;997;48.448;8.924;2024-02-21T11:26:32;2.20;;;2.00;;
1991;SDS011;997;48.448;8.924;2024-02-21T11:28:58;1.97;;;1.77;;
1991;SDS011;997;48.448;8.924;2024-02-21T11:31:25;3.20;;;2.20;;
1991;SDS011;997;48.448;8.924;2024-02-21T11:33:54;2.43;;;1.50;;
1991;SDS011;997;48.448;8.924;2024-02-21T11:36:26;2.10;;;1.40;;
1991;SDS011;997;48.448;8.924;2024-02-21T11:38:53;1.53;;;1.43;;
1991;SDS011;997;48.448;8.924;2024-02-21T11:41:19;2.10;;;2.00;;
1991;SDS011;997;48.448;8.924;2024-02-21T11:43:46;3.37;;;1.70;;
1991;SDS011;997;48.448;8.924;2024-02-21T11:46:13;1.90;;;1.80;;
1991;SDS011;997;48.448;8.924;2024-02-21T11:48:40;3.60;;;1.50;;
1991;SDS011;997;48.448;8.924;2024-02-21T11:51:09;1.50;;;1.33;;
1991;SDS011;997;48.448;8.924;2024-02-21T11:53:35;2.43;;;1.70;;
1991;SDS011;997;48.448;8.924;2024-02-21T11:56:00;1.80;;;1.47;;
1991;SDS011;997;48.448;8.924;2024-02-21T11:58:26;2.43;;;1.67;;
1991;SDS011;997;48.448;8.924;2024-02-21T12:00:52;3.07;;;1.60;;
1991;SDS011;997;48.448;8.924;2024-02-21T12:03:17;1.47;;;1.30;;
1991;SDS011;997;48.448;8.924;2024-02-21T12:05:43;2.37;;;1.47;;
1991;SDS011;997;48.448;8.924;2024-02-21T12:08:11;1.70;;;1.60;;
1991;SDS011;997;48.448;8.924;2024-02-21T12:10:37;4.40;;;2.07;;
1991;SDS011;997;48.448;8.924;2024-02-21T12:13:06;2.60;;;2.40;;
1991;SDS011;997;48.448;8.924;2024-02-21T12:15:33;2.97;;;2.60;;
1991;SDS011;997;48.448;8.924;2024-02-21T12:17:58;2.10;;;1.67;;
1991;SDS011;997;48.448;8.924;2024-02-21T12:20:25;2.97;;;1.80;;
1991;SDS011;997;48.448;8.924;2024-02-21T12:22:51;2.37;;;1.90;;
1991;SDS011;997;48.448;8.924;2024-02-21T12:25:18;2.90;;;1.80;;
1991;SDS011;997;48.448;8.924;2024-02-21T12:27:45;2.50;;;2.00;;
1991;SDS011;997;48.448;8.924;2024-02-21T12:30:11;2.30;;;2.00;;
1991;SDS011;997;48.448;8.924;2024-02-21T12:32:37;2.47;;;2.07;;
1991;SDS011;997;48.448;8.924;2024-02-21T12:35:04;3.57;;;2.37;;
1991;SDS011;997;48.448;8.924;2024-02-21T12:37:30;4.40;;;2.50;;
1991;SDS011;997;48.448;8.924;2024-02-21T12:39:56;3.30;;;2.50;;
1991;SDS011;997;48.448;8.924;2024-02-21T12:42:22;2.57;;;1.90;;
1991;SDS011;997;48.448;8.924;2024-02-21T12:44:48;2.23;;;1.80;;
1991;SDS011;997;48.448;8.924;2024-02-21T12:47:14;2.43;;;2.10;;
1991;SDS011;997;48.448;8.924;2024-02-21T12:49:40;1.30;;;1.20;;
1991;SDS011;997;48.448;8.924;2024-02-21T12:52:06;2.40;;;1.60;;
1991;SDS011;997;48.448;8.924;2024-02-21T12:54:32;1.63;;;1.53;;
1991;SDS011;997;48.448;8.924;2024-02-21T12:56:59;3.00;;;1.60;;
1991;SDS011;997;48.448;8.924;2024-02-21T12:59:27;2.00;;;1.50;;
1991;SDS011;997;48.448;8.924;2024-02-21T13:01:53;1.60;;;1.40;;
1991;SDS011;997;48.448;8.924;2024-02-21T13:04:19;1.90;;;1.50;;
1991;SDS011;997;48.448;8.924;2024-02-21T13:06:48;2.80;;;1.53;;
1991;SDS011;997;48.448;8.924;2024-02-21T13:09:14;2.20;;;1.80;;
1991;SDS011;997;48.448;8.924;2024-02-21T13:11:40;3.70;;;1.17;;
1991;SDS011;997;48.448;8.924;2024-02-21T13:14:06;2.03;;;1.50;;
1991;SDS011;997;48.448;8.924;2024-02-21T13:16:32;0.90;;;0.70;;
1991;SDS011;997;48.448;8.924;2024-02-21T13:19:04;1.93;;;1.03;;
1991;SDS011;997;48.448;8.924;2024-02-21T13:21:31;2.40;;;1.10;;
1991;SDS011;997;48.448;8.924;2024-02-21T13:23:56;3.23;;;1.10;;
1991;SDS011;997;48.448;8.924;2024-02-21T13:26:22;1.67;;;1.27;;
1991;SDS011;997;48.448;8.924;2024-02-21T13:28:48;1.07;;;0.87;;
1991;SDS011;997;48.448;8.924;2024-02-21T13:31:14;1.20;;;1.10;;
1991;SDS011;997;48.448;8.924;2024-02-21T13:33:41;1.60;;;1.40;;
1991;SDS011;997;48.448;8.924;2024-02-21T13:36:09;3.27;;;1.10;;
1991;SDS011;997;48.448;8.924;2024-02-21T13:38:35;1.60;;;1.00;;
1991;SDS011;997;48.448;8.924;2024-02-21T13:41:00;3.07;;;1.57;;
1991;SDS011;997;48.448;8.924;2024-02-21T13:43:26;2.47;;;1.23;;
1991;SDS011;997;48.448;8.924;2024-02-21T13:45:56;1.17;;;0.97;;
1991;SDS011;997;48.448;8.924;2024-02-21T13:48:26;2.17;;;1.13;;
1991;SDS011;997;48.448;8.924;2024-02-21T13:50:55;2.63;;;1.00;;
1991;SDS011;997;48.448;8.924;2024-02-21T13:53:21;3.67;;;1.20;;
1991;SDS011;997;48.448;8.924;2024-02-21T13:55:47;1.57;;;1.47;;
1991;SDS011;997;48.448;8.924;2024-02-21T13:58:13;1.33;;;1.23;;
1991;SDS011;997;48.448;8.924;2024-02-21T14:00:40;1.40;;;1.30;;
1991;SDS011;997;48.448;8.924;2024-02-21T14:03:05;2.90;;;1.10;;
1991;SDS011;997;48.448;8.924;2024-02-21T14:05:31;1.20;;;1.10;;
1991;SDS011;997;48.448;8.924;2024-02-21T14:07:57;2.23;;;0.90;;
1991;SDS011;997;48.448;8.924;2024-02-21T14:10:22;1.40;;;1.30;;
1991;SDS011;997;48.448;8.924;2024-02-21T14:12:48;2.20;;;1.17;;
1991;SDS011;997;48.448;8.924;2024-02-21T14:15:14;1.20;;;1.10;;
1991;SDS011;997;48.448;8.924;2024-02-21T14:17:41;1.80;;;1.33;;
1991;SDS011;997;48.448;8.924;2024-02-21T14:20:07;1.27;;;1.03;;
1991;SDS011;997;48.448;8.924;2024-02-21T14:22:34;1.83;;;1.07;;
1991;SDS011;997;48.448;8.924;2024-02-21T14:25:02;1.00;;;0.80;;
1991;SDS011;997;48.448;8.924;2024-02-21T14:27:30;1.10;;;1.00;;
1991;SDS011;997;48.448;8.924;2024-02-21T14:29:56;2.73;;;1.07;;
1991;SDS011;997;48.448;8.924;2024-02-21T14:32:22;2.30;;;1.20;;
1991;SDS011;997;48.448;8.924;2024-02-21T14:34:47;2.33;;;1.77;;
1991;SDS011;997;48.448;8.924;2024-02-21T14:37:14;2.23;;;1.50;;
1991;SDS011;997;48.448;8.924;2024-02-21T14:39:40;2.30;;;1.50;;
1991;SDS011;997;48.448;8.924;2024-02-21T14:42:06;2.53;;;2.33;;
1991;SDS011;997;48.448;8.924;2024-02-21T14:44:34;1.87;;;1.77;;
1991;SDS011;997;48.448;8.924;2024-02-21T14:47:00;1.63;;;1.37;;
1991;SDS011;997;48.448;8.924;2024-02-21T14:49:28;2.77;;;1.70;;
1991;SDS011;997;48.448;8.924;2024-02-21T14:51:54;2.50;;;1.80;;
1991;SDS011;997;48.448;8.924;2024-02-21T14:54:19;6.93;;;1.90;;
1991;SDS011;997;48.448;8.924;2024-02-21T14:56:45;1.93;;;1.83;;
1991;SDS011;997;48.448;8.924;2024-02-21T14:59:11;7.10;;;1.83;;
1991;SDS011;997;48.448;8.924;2024-02-21T15:01:37;1.80;;;1.50;;
1991;SDS011;997;48.448;8.924;2024-02-21T15:04:04;2.57;;;1.40;;
1991;SDS011;997;48.448;8.924;2024-02-21T15:06:31;2.07;;;1.73;;
1991;SDS011;997;48.448;8.924;2024-02-21T15:08:57;1.47;;;1.37;;
1991;SDS011;997;48.448;8.924;2024-02-21T15:11:23;3.17;;;1.30;;
1991;SDS011;997;48.448;8.924;2024-02-21T15:13:49;4.93;;;4.43;;
1991;SDS011;997;48.448;8.924;2024-02-21T15:16:14;2.37;;;2.13;;
1991;SDS011;997;48.448;8.924;2024-02-21T15:18:41;1.97;;;1.73;;
1991;SDS011;997;48.448;8.924;2024-02-21T15:21:07;2.10;;;1.90;;
1991;SDS011;997;48.448;8.924;2024-02-21T15:23:38;1.50;;;1.40;;
1991;SDS011;997;48.448;8.924;2024-02-21T15:26:04;6.00;;;4.37;;
1991;SDS011;997;48.448;8.924;2024-02-21T15:28:30;2.17;;;1.80;;
1991;SDS011;997;48.448;8.924;2024-02-21T15:30:55;2.40;;;1.23;;
1991;SDS011;997;48.448;8.924;2024-02-21T15:33:22;3.13;;;2.73;;
1991;SDS011;997;48.448;8.924;2024-02-21T15:35:47;5.40;;;2.73;;
1991;SDS011;997;48.448;8.924;2024-02-21T15:38:13;8.60;;;7.73;;